KBML/BML METAR and TAF weather

Enter ICAO airport designator
Station Type Date Time Source
KBML METAR 2019/10/16 19:52 UTC NOAA

KBML 161952Z AUTO 13013KT 10SM CLR 13/04 A2985 RMK AO2 PK WND 13028/1903 SLP116 T01280039


Station Type Date Time Source
KBML Decoded METAR 2019/10/16 19:52 UTC NOAA

BERLIN MUNICIPAL AIRPORT, NH, United States (KBML) 44-35N 71-11W 345M
Oct 16, 2019 - 03:52 PM EDT / 2019.10.16 1952 UTC
Wind: from the SE (130 degrees) at 15 MPH (13 KT):0
Visibility: 10 mile(s):0
Sky conditions: clear
Temperature: 55.0 F (12.8 C)
Dew Point: 39.0 F (3.9 C)
Relative Humidity: 54%
Pressure (altimeter): 29.85 in. Hg (1010 hPa)
ob: KBML 161952Z AUTO 13013KT 10SM CLR 13/04 A2985 RMK AO2 PK WND 13028/1903 SLP116 T01280039
cycle: 20

Station Type Date Time Source
KBML TAF UTC NOAA

Error!

Example: see airport list